createdAt,value
2022-10-21T00:00:52.557Z,71.80
2022-10-21T00:03:20.838Z,71.70
2022-10-21T00:05:48.759Z,71.70
2022-10-21T00:08:19.666Z,71.70
2022-10-21T00:10:47.503Z,71.70
2022-10-21T00:13:15.832Z,71.80
2022-10-21T00:15:43.687Z,71.70
2022-10-21T00:18:12.055Z,71.90
2022-10-21T00:20:41.191Z,72.00
2022-10-21T00:23:09.316Z,72.00
2022-10-21T00:25:39.109Z,72.00
2022-10-21T00:28:07.218Z,72.10
2022-10-21T00:30:34.999Z,72.10
2022-10-21T00:33:03.378Z,72.00
2022-10-21T00:35:34.448Z,72.00
2022-10-21T00:38:02.709Z,72.00
2022-10-21T00:40:30.507Z,72.00
2022-10-21T00:42:59.639Z,72.10
2022-10-21T00:45:28.020Z,72.10
2022-10-21T00:47:58.654Z,72.10
2022-10-21T00:50:30.327Z,72.30
2022-10-21T00:52:58.085Z,72.10
2022-10-21T00:55:25.964Z,72.20
2022-10-21T00:57:53.740Z,72.30
2022-10-21T01:00:22.880Z,72.40
2022-10-21T01:02:50.639Z,72.40
2022-10-21T01:05:18.524Z,72.30
2022-10-21T01:07:48.146Z,72.40
2022-10-21T01:10:16.310Z,72.40
2022-10-21T01:12:50.098Z,72.50
2022-10-21T01:15:19.588Z,72.60
2022-10-21T01:17:52.084Z,72.60
2022-10-21T01:20:50.556Z,72.70
2022-10-21T01:23:43.049Z,72.80
2022-10-21T01:26:21.419Z,72.80
2022-10-21T01:28:54.469Z,73.00
2022-10-21T01:31:25.770Z,72.90
2022-10-21T01:33:54.875Z,73.00
2022-10-21T01:36:28.971Z,73.10
2022-10-21T01:39:08.381Z,73.10
2022-10-21T01:41:37.554Z,73.20
2022-10-21T01:44:07.154Z,73.40
2022-10-21T01:46:39.016Z,73.40
2022-10-21T01:49:11.259Z,73.50
2022-10-21T01:51:39.080Z,73.40
2022-10-21T01:54:08.689Z,73.60
2022-10-21T01:56:36.364Z,73.60
2022-10-21T01:59:04.411Z,73.70
2022-10-21T02:01:32.312Z,73.70
2022-10-21T02:04:02.247Z,73.80
2022-10-21T02:06:30.403Z,73.70
2022-10-21T02:08:58.214Z,73.90
2022-10-21T02:11:26.781Z,74.00
2022-10-21T02:13:57.087Z,73.90
2022-10-21T02:16:26.929Z,73.90
2022-10-21T02:18:55.623Z,74.00
2022-10-21T02:21:25.712Z,74.00
2022-10-21T02:23:54.526Z,74.00
2022-10-21T02:26:22.657Z,74.00
2022-10-21T02:28:50.629Z,74.10
2022-10-21T02:31:26.806Z,74.10
2022-10-21T02:34:00.387Z,74.20
2022-10-21T02:36:35.449Z,74.20
2022-10-21T02:39:04.947Z,74.30
2022-10-21T02:41:33.332Z,74.40
2022-10-21T02:44:02.066Z,74.30
2022-10-21T02:46:36.389Z,74.30
2022-10-21T02:49:04.314Z,74.30
2022-10-21T02:51:34.209Z,74.30
2022-10-21T02:54:02.144Z,74.30
2022-10-21T02:58:58.428Z,74.30
2022-10-21T03:01:26.920Z,74.30
2022-10-21T03:03:55.203Z,74.30
2022-10-21T03:06:23.158Z,74.30
2022-10-21T03:08:52.608Z,74.30
2022-10-21T03:11:20.547Z,74.40
2022-10-21T03:13:49.115Z,74.40
2022-10-21T03:18:45.568Z,74.60
2022-10-21T03:21:13.461Z,74.50
2022-10-21T03:23:41.533Z,74.60
2022-10-21T03:26:10.940Z,74.60
2022-10-21T03:28:39.523Z,74.60
2022-10-21T03:31:07.282Z,74.60
2022-10-21T03:33:35.061Z,74.70
2022-10-21T03:36:02.823Z,74.70
2022-10-21T03:38:30.595Z,74.50
2022-10-21T03:40:58.333Z,74.70
2022-10-21T03:43:27.847Z,74.90
2022-10-21T03:45:55.586Z,74.90
2022-10-21T03:48:23.801Z,74.80
2022-10-21T03:50:51.588Z,74.90
2022-10-21T03:53:38.123Z,74.80
2022-10-21T03:56:08.544Z,75.00
2022-10-21T03:58:37.889Z,75.00
2022-10-21T04:01:05.782Z,74.90
2022-10-21T04:03:33.772Z,75.10
2022-10-21T04:06:01.747Z,75.10
2022-10-21T04:08:29.909Z,75.00
2022-10-21T04:10:58.620Z,75.00
2022-10-21T04:13:26.897Z,75.10
2022-10-21T04:15:59.611Z,75.10
2022-10-21T04:18:27.775Z,75.00
2022-10-21T04:20:55.548Z,75.20
2022-10-21T04:23:23.849Z,75.40
2022-10-21T04:25:51.837Z,75.10
2022-10-21T04:28:20.474Z,75.10
2022-10-21T04:30:48.387Z,75.00
2022-10-21T04:33:18.293Z,75.10
2022-10-21T04:35:46.060Z,75.10
2022-10-21T04:38:14.334Z,75.10
2022-10-21T04:40:42.371Z,75.10
2022-10-21T04:43:10.311Z,75.00
2022-10-21T04:45:40.290Z,75.10
2022-10-21T04:48:08.348Z,75.10
2022-10-21T04:50:37.885Z,75.10
2022-10-21T04:53:05.937Z,75.00
2022-10-21T04:55:33.964Z,75.00
2022-10-21T04:58:01.932Z,75.10
2022-10-21T05:00:30.244Z,75.10
2022-10-21T05:02:58.487Z,75.10
2022-10-21T05:05:27.070Z,75.10
2022-10-21T05:07:56.437Z,75.10
2022-10-21T05:10:26.001Z,75.10
2022-10-21T05:12:54.026Z,75.10
2022-10-21T05:15:22.257Z,75.10
2022-10-21T05:17:49.977Z,75.00
2022-10-21T05:20:18.304Z,75.10
2022-10-21T05:22:46.372Z,75.00
2022-10-21T05:25:16.237Z,75.00
2022-10-21T05:27:43.968Z,75.10
2022-10-21T05:30:12.742Z,75.10
2022-10-21T05:32:40.950Z,75.20
2022-10-21T05:35:09.665Z,75.30
2022-10-21T05:37:37.457Z,75.10
2022-10-21T05:40:06.691Z,75.10
2022-10-21T05:42:35.893Z,75.10
2022-10-21T05:45:04.252Z,75.10
2022-10-21T05:47:31.998Z,75.10
2022-10-21T05:50:00.117Z,75.10
2022-10-21T05:52:27.884Z,75.10
2022-10-21T05:54:56.036Z,75.00
2022-10-21T05:57:23.820Z,75.10
2022-10-21T05:59:53.387Z,75.10
2022-10-21T06:02:21.190Z,75.10
2022-10-21T06:04:48.956Z,75.10
2022-10-21T06:07:16.717Z,75.20
2022-10-21T06:09:45.029Z,75.30
2022-10-21T06:12:13.360Z,75.40
2022-10-21T06:14:41.302Z,75.40
2022-10-21T06:17:10.724Z,75.40
2022-10-21T06:19:38.559Z,75.50
2022-10-21T06:22:06.662Z,75.50
2022-10-21T06:24:34.609Z,75.50
2022-10-21T06:27:02.882Z,75.40
2022-10-21T06:29:30.924Z,75.40
2022-10-21T06:31:59.434Z,75.50
2022-10-21T06:34:28.895Z,75.50
2022-10-21T06:36:57.224Z,75.40
2022-10-21T06:39:25.266Z,75.50
2022-10-21T06:41:53.627Z,75.40
2022-10-21T06:44:21.659Z,75.50
2022-10-21T06:46:49.979Z,75.40
2022-10-21T06:49:17.935Z,75.40
2022-10-21T06:51:47.232Z,75.50
2022-10-21T06:54:15.192Z,75.60
2022-10-21T06:56:43.633Z,75.60
2022-10-21T06:59:11.627Z,75.50
2022-10-21T07:01:59.055Z,75.60
2022-10-21T07:04:27.734Z,80.30
2022-10-21T07:06:57.445Z,84.20
2022-10-21T07:09:25.536Z,85.60
2022-10-21T07:11:54.033Z,90.60
2022-10-21T07:14:22.101Z,91.10
2022-10-21T07:16:51.575Z,91.80
2022-10-21T07:19:19.448Z,92.00
2022-10-21T07:21:47.247Z,92.90
2022-10-21T07:24:18.806Z,92.50
2022-10-21T07:26:50.020Z,91.50
2022-10-21T07:29:17.913Z,90.50
2022-10-21T07:31:45.937Z,89.70
2022-10-21T07:34:13.933Z,88.50
2022-10-21T07:36:48.365Z,87.50
2022-10-21T07:39:18.398Z,86.80
2022-10-21T07:41:47.792Z,86.10
2022-10-21T07:44:15.995Z,85.50
2022-10-21T07:46:44.225Z,85.10
2022-10-21T07:49:12.376Z,84.50
2022-10-21T07:51:40.188Z,84.10
2022-10-21T07:54:08.254Z,83.60
2022-10-21T07:56:38.517Z,83.30
2022-10-21T07:59:11.625Z,82.80
2022-10-21T08:01:41.562Z,82.40
2022-10-21T08:04:10.561Z,82.00
2022-10-21T08:06:38.636Z,81.70
2022-10-21T08:09:07.311Z,81.50
2022-10-21T08:11:35.446Z,81.00
2022-10-21T08:14:07.301Z,80.90
2022-10-21T08:16:35.526Z,80.80
2022-10-21T08:19:04.005Z,80.50
2022-10-21T08:21:32.041Z,80.30
2022-10-21T08:23:59.980Z,80.00
2022-10-21T08:26:27.953Z,80.00
2022-10-21T08:28:55.851Z,79.40
2022-10-21T08:31:28.570Z,79.20
2022-10-21T08:33:56.748Z,79.00
2022-10-21T08:36:26.356Z,78.60
2022-10-21T08:38:54.720Z,78.30
2022-10-21T08:41:45.109Z,78.40
2022-10-21T08:44:15.866Z,78.10
2022-10-21T08:46:47.833Z,77.60
2022-10-21T08:49:23.126Z,77.50
2022-10-21T08:51:55.287Z,77.30
2022-10-21T08:54:25.623Z,77.50
2022-10-21T08:56:53.742Z,77.10
2022-10-21T08:59:23.759Z,76.30
2022-10-21T09:01:55.924Z,76.20
2022-10-21T09:04:29.093Z,76.10
2022-10-21T09:06:58.890Z,76.10
2022-10-21T09:09:28.321Z,76.00
2022-10-21T09:12:01.665Z,75.90
2022-10-21T09:14:51.324Z,75.70
2022-10-21T09:17:44.512Z,75.80
2022-10-21T09:20:18.580Z,76.10
2022-10-21T09:22:52.345Z,76.40
2022-10-21T09:25:22.529Z,76.20
2022-10-21T09:27:56.500Z,75.90
2022-10-21T09:30:25.230Z,76.00
2022-10-21T09:32:57.576Z,75.70
2022-10-21T09:35:29.587Z,75.40
2022-10-21T09:37:58.616Z,75.40
2022-10-21T09:40:28.416Z,75.10
2022-10-21T09:42:59.234Z,75.10
2022-10-21T09:45:31.621Z,75.00
2022-10-21T09:48:01.690Z,73.60
2022-10-21T09:50:32.926Z,72.10
2022-10-21T09:53:07.648Z,70.50
2022-10-21T09:55:35.601Z,70.30
2022-10-21T09:58:04.179Z,70.00
2022-10-21T10:00:46.817Z,69.90
2022-10-21T10:03:30.667Z,68.70
2022-10-21T10:05:58.652Z,68.80
2022-10-21T10:08:30.879Z,68.70
2022-10-21T10:11:06.512Z,68.50
2022-10-21T10:13:34.579Z,68.00
2022-10-21T10:16:24.230Z,67.60
2022-10-21T10:18:54.936Z,67.70
2022-10-21T10:21:23.261Z,67.00
2022-10-21T10:23:54.478Z,66.90
2022-10-21T10:26:24.861Z,66.80
2022-10-21T10:28:54.984Z,66.40
2022-10-21T10:31:31.625Z,66.10
2022-10-21T10:34:03.609Z,66.10
2022-10-21T10:36:33.616Z,65.30
2022-10-21T10:39:01.857Z,65.40
2022-10-21T10:41:35.912Z,65.10
2022-10-21T10:44:08.834Z,64.70
2022-10-21T10:46:37.438Z,64.70
2022-10-21T10:49:21.266Z,64.50
2022-10-21T10:51:50.023Z,64.40
2022-10-21T10:54:19.428Z,64.10
2022-10-21T10:56:50.651Z,63.90
2022-10-21T10:59:22.253Z,63.80
2022-10-21T11:01:52.738Z,63.70
2022-10-21T11:04:24.610Z,63.40
2022-10-21T11:06:58.316Z,63.20
2022-10-21T11:09:27.508Z,63.10
2022-10-21T11:11:56.712Z,62.70
2022-10-21T11:14:24.503Z,62.80
2022-10-21T11:17:01.338Z,62.40
2022-10-21T11:19:38.979Z,62.50
2022-10-21T11:22:13.262Z,62.20
2022-10-21T11:25:02.433Z,62.20
2022-10-21T11:27:42.547Z,62.00
2022-10-21T11:30:12.755Z,61.80
2022-10-21T11:32:48.754Z,61.70
2022-10-21T11:35:26.720Z,61.80
2022-10-21T11:38:00.251Z,61.40
2022-10-21T11:40:32.950Z,61.20
2022-10-21T11:43:04.332Z,60.90
2022-10-21T11:45:37.622Z,60.80
2022-10-21T11:48:13.148Z,60.40
2022-10-21T11:50:45.675Z,59.80
2022-10-21T11:53:22.430Z,59.90
2022-10-21T11:55:54.260Z,60.00
2022-10-21T11:58:29.595Z,59.90
2022-10-21T12:01:04.300Z,59.80
2022-10-21T12:03:48.734Z,59.80
2022-10-21T12:06:23.681Z,59.60
2022-10-21T12:08:53.514Z,59.60
2022-10-21T12:11:23.291Z,59.70
2022-10-21T12:13:52.458Z,59.60
2022-10-21T12:16:21.294Z,59.40
2022-10-21T12:18:51.263Z,59.20
2022-10-21T12:21:22.787Z,59.00
2022-10-21T12:23:53.212Z,59.10
2022-10-21T12:26:22.516Z,59.30
2022-10-21T12:28:52.575Z,59.50
2022-10-21T12:31:29.273Z,59.30
2022-10-21T12:33:57.204Z,59.40
2022-10-21T12:36:45.993Z,59.50
2022-10-21T12:39:48.844Z,59.70
2022-10-21T12:42:18.550Z,59.90
2022-10-21T12:44:46.722Z,60.20
2022-10-21T12:47:25.737Z,60.40
2022-10-21T12:50:07.910Z,60.50
2022-10-21T12:52:38.922Z,60.70
2022-10-21T12:55:08.651Z,60.90
2022-10-21T12:57:37.412Z,61.20
2022-10-21T13:00:44.163Z,61.30
2022-10-21T13:03:12.284Z,61.10
2022-10-21T13:05:58.817Z,61.60
2022-10-21T13:08:28.356Z,61.60
2022-10-21T13:11:14.155Z,61.70
2022-10-21T13:13:42.193Z,61.70
2022-10-21T13:16:30.031Z,61.90
2022-10-21T13:19:00.019Z,61.90
2022-10-21T13:21:34.485Z,62.00
2022-10-21T13:24:14.983Z,62.20
2022-10-21T13:26:43.526Z,62.40
2022-10-21T13:29:34.096Z,62.30
2022-10-21T13:32:32.460Z,62.10
2022-10-21T13:35:02.898Z,62.30
2022-10-21T13:37:32.591Z,62.70
2022-10-21T13:40:03.372Z,62.70
2022-10-21T13:42:34.456Z,62.70
2022-10-21T13:45:04.558Z,62.90
2022-10-21T13:47:33.449Z,63.20
2022-10-21T13:50:06.731Z,63.90
2022-10-21T13:52:34.467Z,63.40
2022-10-21T13:55:04.721Z,63.40
2022-10-21T13:57:33.597Z,63.20
2022-10-21T14:00:02.446Z,63.60
2022-10-21T14:02:30.686Z,64.00
2022-10-21T14:04:58.458Z,64.00
2022-10-21T14:07:26.262Z,64.40
2022-10-21T14:09:55.551Z,64.20
2022-10-21T14:12:26.097Z,64.00
2022-10-21T14:14:54.231Z,63.60
2022-10-21T14:17:23.965Z,63.40
2022-10-21T14:19:53.150Z,63.40
2022-10-21T14:22:22.213Z,63.30
2022-10-21T14:24:53.841Z,63.30
2022-10-21T14:27:23.678Z,63.20
2022-10-21T14:29:53.180Z,63.10
2022-10-21T14:32:22.191Z,63.20
2022-10-21T14:35:00.911Z,63.20
2022-10-21T14:37:28.815Z,63.20
2022-10-21T14:40:10.555Z,63.40
2022-10-21T14:42:38.685Z,63.30
2022-10-21T14:45:16.647Z,63.20
2022-10-21T14:47:49.663Z,63.30
2022-10-21T14:50:19.848Z,63.40
2022-10-21T14:52:48.002Z,63.40
2022-10-21T14:55:17.361Z,63.40
2022-10-21T14:57:47.529Z,63.40
2022-10-21T15:00:29.091Z,63.60
2022-10-21T15:02:58.697Z,63.50
2022-10-21T15:05:36.079Z,63.60
2022-10-21T15:08:28.861Z,63.50
2022-10-21T15:11:23.728Z,63.60
2022-10-21T15:14:25.673Z,63.80
2022-10-21T15:16:56.085Z,63.90
2022-10-21T15:19:25.561Z,64.10
2022-10-21T15:21:55.265Z,64.00
2022-10-21T15:24:24.737Z,64.00
2022-10-21T15:26:53.330Z,64.20
2022-10-21T15:29:27.348Z,64.20
2022-10-21T15:31:57.999Z,64.20
2022-10-21T15:34:26.123Z,64.20
2022-10-21T15:36:54.489Z,64.80
2022-10-21T15:39:22.459Z,64.30
2022-10-21T15:41:53.734Z,64.30
2022-10-21T15:44:23.047Z,64.40
2022-10-21T15:46:57.945Z,64.40
2022-10-21T15:49:27.949Z,64.50
2022-10-21T15:51:55.713Z,64.60
2022-10-21T15:54:23.576Z,64.60
2022-10-21T15:56:52.440Z,64.90
2022-10-21T15:59:21.990Z,65.00
2022-10-21T16:01:50.223Z,64.90
2022-10-21T16:04:18.533Z,65.10
2022-10-21T16:06:48.938Z,65.10
2022-10-21T16:09:19.804Z,65.30
2022-10-21T16:11:58.952Z,65.50
2022-10-21T16:14:29.507Z,65.60
2022-10-21T16:16:58.446Z,65.80
2022-10-21T16:19:27.046Z,65.80
2022-10-21T16:21:56.831Z,66.00
2022-10-21T16:24:25.256Z,66.10
2022-10-21T16:26:53.179Z,66.30
2022-10-21T16:29:22.116Z,66.50
2022-10-21T16:31:50.128Z,66.40
2022-10-21T16:34:18.293Z,66.50
2022-10-21T16:36:46.109Z,66.60
2022-10-21T16:39:16.092Z,67.40
2022-10-21T16:41:44.077Z,66.80
2022-10-21T16:44:12.272Z,66.80
2022-10-21T16:46:41.603Z,66.90
2022-10-21T16:49:13.129Z,67.00
2022-10-21T16:51:41.491Z,67.00
2022-10-21T16:54:09.508Z,67.00
2022-10-21T16:56:39.110Z,67.10
2022-10-21T16:59:07.825Z,67.10
2022-10-21T17:01:35.738Z,67.20
2022-10-21T17:04:03.827Z,67.30
2022-10-21T17:06:31.907Z,67.30
2022-10-21T17:09:00.035Z,67.50
2022-10-21T17:11:31.950Z,67.40
2022-10-21T17:14:01.422Z,67.40
2022-10-21T17:16:29.715Z,67.50
2022-10-21T17:18:57.489Z,67.50
2022-10-21T17:21:26.648Z,67.50
2022-10-21T17:23:54.461Z,67.60
2022-10-21T17:26:22.281Z,67.50
2022-10-21T17:28:50.529Z,67.60
2022-10-21T17:31:21.343Z,67.70
2022-10-21T17:33:49.455Z,67.80
2022-10-21T17:36:17.700Z,67.70
2022-10-21T17:38:45.686Z,67.80
2022-10-21T17:41:14.560Z,67.80
2022-10-21T17:43:42.669Z,67.80
2022-10-21T17:46:11.369Z,68.00
2022-10-21T17:48:40.704Z,67.90
2022-10-21T17:51:09.349Z,67.80
2022-10-21T17:53:37.353Z,67.90
2022-10-21T17:56:07.344Z,67.90
2022-10-21T17:58:35.458Z,68.00
2022-10-21T18:01:07.663Z,68.00
2022-10-21T18:03:35.966Z,68.00
2022-10-21T18:06:07.469Z,68.10
2022-10-21T18:08:35.464Z,68.10
2022-10-21T18:11:03.415Z,68.10
2022-10-21T18:13:31.588Z,68.20
2022-10-21T18:16:03.312Z,68.20
2022-10-21T18:18:31.223Z,68.30
2022-10-21T18:21:02.179Z,68.30
2022-10-21T18:23:31.285Z,68.30
2022-10-21T18:26:03.754Z,68.30
2022-10-21T18:28:32.340Z,68.30
2022-10-21T18:31:00.303Z,68.30
2022-10-21T18:33:28.423Z,68.20
2022-10-21T18:35:57.035Z,68.40
2022-10-21T18:38:25.029Z,68.40
2022-10-21T18:41:02.148Z,68.50
2022-10-21T18:43:36.913Z,68.50
2022-10-21T18:46:04.915Z,68.50
2022-10-21T18:48:32.696Z,68.60
2022-10-21T18:51:06.187Z,68.60
2022-10-21T18:53:35.710Z,68.60
2022-10-21T18:56:09.078Z,68.60
2022-10-21T18:58:38.015Z,68.60
2022-10-21T19:01:06.277Z,68.70
2022-10-21T19:03:34.958Z,68.80
2022-10-21T19:06:16.245Z,68.70
2022-10-21T19:08:44.372Z,68.70
2022-10-21T19:11:13.918Z,68.70
2022-10-21T19:13:41.926Z,68.80
2022-10-21T19:16:11.164Z,68.80
2022-10-21T19:18:39.167Z,68.80
2022-10-21T19:21:07.769Z,68.80
2022-10-21T19:23:36.047Z,68.70
2022-10-21T19:26:04.182Z,68.70
2022-10-21T19:28:35.984Z,68.70
2022-10-21T19:31:03.906Z,68.90
2022-10-21T19:33:32.609Z,68.80
2022-10-21T19:36:00.883Z,68.80
2022-10-21T19:38:44.897Z,68.90
2022-10-21T19:41:14.329Z,68.90
2022-10-21T19:43:44.177Z,69.00
2022-10-21T19:46:12.848Z,69.00
2022-10-21T19:48:41.152Z,68.90
2022-10-21T19:51:15.120Z,69.00
2022-10-21T19:53:45.090Z,69.10
2022-10-21T19:56:13.163Z,69.10
2022-10-21T19:58:41.249Z,69.10
2022-10-21T20:01:11.927Z,69.10
2022-10-21T20:03:40.929Z,69.10
2022-10-21T20:06:09.167Z,69.30
2022-10-21T20:08:38.590Z,69.50
2022-10-21T20:11:08.392Z,69.40
2022-10-21T20:13:36.250Z,69.40
2022-10-21T20:16:04.605Z,69.60
2022-10-21T20:18:34.077Z,69.60
2022-10-21T20:21:02.783Z,69.50
2022-10-21T20:23:30.814Z,69.70
2022-10-21T20:25:59.110Z,69.90
2022-10-21T20:28:27.073Z,69.90
2022-10-21T20:30:58.527Z,69.90
2022-10-21T20:33:26.478Z,69.90
2022-10-21T20:35:55.973Z,70.10
2022-10-21T20:38:23.831Z,70.20
2022-10-21T20:40:54.882Z,70.30
2022-10-21T20:43:22.633Z,70.20
2022-10-21T20:45:50.475Z,70.40
2022-10-21T20:48:18.268Z,70.50
2022-10-21T20:50:46.096Z,70.40
2022-10-21T20:53:15.482Z,70.50
2022-10-21T20:55:45.528Z,70.60
2022-10-21T20:58:13.933Z,70.70
2022-10-21T21:00:44.870Z,70.60
2022-10-21T21:03:14.727Z,70.80
2022-10-21T21:05:43.082Z,70.90
2022-10-21T21:08:11.140Z,70.90
2022-10-21T21:10:40.604Z,71.00
2022-10-21T21:13:08.715Z,71.00
2022-10-21T21:15:36.881Z,71.00
2022-10-21T21:18:11.592Z,71.10
2022-10-21T21:20:39.536Z,71.30
2022-10-21T21:23:07.313Z,71.20
2022-10-21T21:25:35.122Z,71.30
2022-10-21T21:28:04.215Z,71.30
2022-10-21T21:30:32.390Z,71.40
2022-10-21T21:33:00.119Z,71.40
2022-10-21T21:35:27.917Z,71.50
2022-10-21T21:37:55.836Z,71.50
2022-10-21T21:40:23.863Z,71.60
2022-10-21T21:42:51.724Z,71.80
2022-10-21T21:45:21.174Z,71.80
2022-10-21T21:47:49.319Z,71.90
2022-10-21T21:50:17.790Z,71.80
2022-10-21T21:52:46.337Z,72.00
2022-10-21T21:55:15.169Z,72.00
2022-10-21T21:57:43.307Z,72.10
2022-10-21T22:00:13.179Z,72.10
2022-10-21T22:02:42.956Z,72.10
2022-10-21T22:05:11.874Z,72.10
2022-10-21T22:07:40.197Z,72.20
2022-10-21T22:10:08.848Z,72.40
2022-10-21T22:12:36.886Z,72.30
2022-10-21T22:15:05.529Z,72.50
2022-10-21T22:17:33.530Z,72.50
2022-10-21T22:20:03.142Z,72.50
2022-10-21T22:22:31.066Z,72.50
2022-10-21T22:24:59.204Z,72.50
2022-10-21T22:27:27.112Z,72.50
2022-10-21T22:29:55.047Z,72.60
2022-10-21T22:32:23.087Z,72.60
2022-10-21T22:34:51.112Z,72.70
2022-10-21T22:37:20.589Z,72.80
2022-10-21T22:39:48.376Z,72.80
2022-10-21T22:42:16.180Z,72.90
2022-10-21T22:44:43.915Z,72.80
2022-10-21T22:47:11.684Z,72.90
2022-10-21T22:49:39.443Z,73.00
2022-10-21T22:52:07.327Z,72.90
2022-10-21T22:54:49.211Z,73.00
2022-10-21T22:57:17.954Z,73.10
2022-10-21T22:59:50.646Z,73.20
2022-10-21T23:02:21.589Z,73.20
2022-10-21T23:04:49.633Z,73.10
2022-10-21T23:07:17.616Z,73.30
2022-10-21T23:09:46.990Z,73.20
2022-10-21T23:12:15.498Z,73.10
2022-10-21T23:14:43.444Z,73.30
2022-10-21T23:17:11.772Z,73.40
2022-10-21T23:19:39.804Z,73.30
2022-10-21T23:22:07.878Z,73.50
2022-10-21T23:24:36.385Z,73.50
2022-10-21T23:27:06.209Z,73.60
2022-10-21T23:29:34.179Z,73.50
2022-10-21T23:32:02.330Z,73.60
2022-10-21T23:34:30.393Z,73.80
2022-10-21T23:36:58.394Z,73.70
2022-10-21T23:39:26.430Z,73.70
2022-10-21T23:41:54.690Z,73.80
2022-10-21T23:44:24.665Z,73.80
2022-10-21T23:46:52.596Z,73.60
2022-10-21T23:49:20.843Z,73.80
2022-10-21T23:51:48.882Z,73.80
2022-10-21T23:54:25.522Z,73.90
2022-10-21T23:56:53.439Z,73.90
2022-10-21T23:59:22.150Z,73.90
